Time;durP1;ratioP1;P1;durP2;ratioP2;P2;SDS_P1;SDS_P2;PMS_P1;PMS_P2;Temp;Humidity;BMP_temperature;BMP_pressure;BME280_temperature;BME280_humidity;BME280_pressure;Samples;Min_cycle;Max_cycle;Signal;HPM_P1;HPM_P2
2022/09/06 00:01:11;;;;;;;14.70;5.37;;;;;;;12.91;60.89;101910.88;1702511;84;25806;-62
2022/09/06 00:03:38;;;;;;;9.48;5.65;;;;;;;12.82;61.29;101912.47;1701008;84;26309;-62
2022/09/06 00:06:13;;;;;;;13.32;6.40;;;;;;;12.74;61.42;101909.53;1701319;84;25807;-62
2022/09/06 00:08:42;;;;;;;12.05;6.05;;;;;;;12.64;61.38;101906.20;1704007;83;27533;-61
2022/09/06 00:11:09;;;;;;;11.45;6.12;;;;;;;12.58;62.05;101910.75;1708164;83;25877;-62
2022/09/06 00:13:37;;;;;;;12.25;6.22;;;;;;;12.49;62.19;101911.00;1703506;84;25680;-61
2022/09/06 00:16:12;;;;;;;13.45;6.25;;;;;;;12.42;62.36;101911.09;1694409;84;25949;-62
2022/09/06 00:18:40;;;;;;;12.50;6.87;;;;;;;12.36;62.22;101908.88;1686838;83;25877;-62
2022/09/06 00:21:18;;;;;;;15.18;6.97;;;;;;;12.33;62.06;101914.04;1684869;85;28308;-61
2022/09/06 00:23:46;;;;;;;17.45;6.70;;;;;;;12.32;62.07;101908.27;1695276;83;25973;-62
2022/09/06 00:26:14;;;;;;;16.50;7.08;;;;;;;12.30;62.16;101906.17;1713758;83;25732;-61
2022/09/06 00:28:42;;;;;;;11.63;6.20;;;;;;;12.29;62.17;101906.30;1714235;83;25743;-63
2022/09/06 00:31:19;;;;;;;11.00;6.35;;;;;;;12.27;62.42;101906.44;1714622;83;25498;-62
2022/09/06 00:33:46;;;;;;;11.55;6.28;;;;;;;12.27;62.51;101901.03;1714323;83;27466;-62
2022/09/06 00:36:14;;;;;;;16.82;7.53;;;;;;;12.27;62.58;101894.77;1712648;83;25810;-62
2022/09/06 00:38:42;;;;;;;12.07;6.22;;;;;;;12.28;62.70;101896.48;1712591;83;25668;-62
2022/09/06 00:41:12;;;;;;;16.10;7.08;;;;;;;12.30;62.77;101891.84;1690793;82;26460;-63
2022/09/06 00:43:40;;;;;;;11.25;6.53;;;;;;;12.30;62.91;101902.13;1711467;83;25755;-62
2022/09/06 00:46:12;;;;;;;13.80;6.75;;;;;;;12.34;63.21;101900.05;1694591;83;27587;-62
2022/09/06 00:48:40;;;;;;;9.60;5.97;;;;;;;12.34;63.10;101896.88;1693953;84;26554;-62
2022/09/06 00:51:10;;;;;;;22.65;7.08;;;;;;;12.35;63.33;101904.47;1694411;83;25716;-62
2022/09/06 00:53:39;;;;;;;20.02;6.75;;;;;;;12.41;63.59;101910.75;1695037;83;25700;-62
2022/09/06 00:56:06;;;;;;;16.45;7.35;;;;;;;12.40;63.33;101905.45;1694540;83;26814;-61
2022/09/06 00:58:34;;;;;;;20.50;6.92;;;;;;;12.42;63.52;101907.55;1693968;84;28293;-62
2022/09/06 01:01:01;;;;;;;12.13;7.12;;;;;;;12.46;63.95;101909.05;1693628;83;25788;-62
2022/09/06 01:03:28;;;;;;;15.68;6.55;;;;;;;12.46;63.62;101907.69;1693980;84;25840;-62
2022/09/06 01:06:18;;;;;;;11.45;6.62;;;;;;;12.47;63.71;101908.91;1694808;84;25728;-62
2022/09/06 01:09:19;;;;;;;13.93;6.90;;;;;;;12.50;63.70;101913.20;1667871;86;25800;-62
2022/09/06 01:11:51;;;;;;;16.80;6.35;;;;;;;12.51;63.75;101906.32;1676664;84;27550;-62
2022/09/06 01:14:41;;;;;;;15.65;7.65;;;;;;;12.49;63.49;101906.95;1671367;83;25760;-62
2022/09/06 01:17:42;;;;;;;11.40;6.42;;;;;;;12.44;63.71;101911.84;1684793;83;25701;-62
2022/09/06 01:20:35;;;;;;;15.28;7.10;;;;;;;12.45;63.63;101913.56;1683914;83;25785;-61
2022/09/06 01:23:53;;;;;;;19.55;7.42;;;;;;;12.48;63.65;101920.08;1684980;83;25790;-62
2022/09/06 01:26:57;;;;;;;14.55;8.15;;;;;;;12.49;63.58;101915.53;1663229;85;27474;-62
2022/09/06 01:30:04;;;;;;;19.52;8.15;;;;;;;12.51;63.41;101913.58;1684921;84;26012;-62
2022/09/06 01:32:48;;;;;;;18.20;7.85;;;;;;;12.49;63.22;101913.70;1677383;83;25763;-62
2022/09/06 01:35:37;;;;;;;17.10;6.83;;;;;;;12.46;63.17;101923.89;1685355;83;25795;-62
2022/09/06 01:38:05;;;;;;;15.28;7.15;;;;;;;12.46;63.19;101922.03;1684532;83;25508;-61
2022/09/06 01:40:35;;;;;;;16.07;7.62;;;;;;;12.44;62.86;101920.44;1684839;85;27484;-61
2022/09/06 01:43:05;;;;;;;17.23;7.53;;;;;;;12.42;62.75;101916.49;1679894;83;25735;-63
2022/09/06 01:45:53;;;;;;;14.15;7.40;;;;;;;12.41;63.47;101913.92;1676785;85;25720;-61
2022/09/06 01:48:48;;;;;;;20.72;8.80;;;;;;;12.35;62.99;101913.91;1666159;84;25514;-61
2022/09/06 01:51:35;;;;;;;14.83;8.08;;;;;;;12.33;62.87;101910.47;1684954;84;25820;-62
2022/09/06 01:54:38;;;;;;;21.57;8.60;;;;;;;12.30;62.70;101906.17;1684631;83;28381;-62
2022/09/06 01:57:22;;;;;;;12.63;7.92;;;;;;;12.27;62.59;101906.91;1688066;83;25937;-62
2022/09/06 02:00:09;;;;;;;17.67;8.40;;;;;;;12.23;62.67;101910.33;1684910;85;25760;-61
2022/09/06 02:03:13;;;;;;;11.35;7.12;;;;;;;12.16;62.55;101907.75;1684897;85;25830;-61
2022/09/06 02:06:07;;;;;;;17.45;7.75;;;;;;;12.10;62.61;101913.12;1681721;83;25745;-62
2022/09/06 02:08:39;;;;;;;14.45;7.47;;;;;;;12.02;62.65;101911.00;1689290;83;27487;-62
2022/09/06 02:11:08;;;;;;;13.62;7.58;;;;;;;11.97;62.80;101909.16;1714666;82;25485;-62
2022/09/06 02:13:49;;;;;;;14.73;7.20;;;;;;;11.92;63.23;101911.80;1714196;83;25795;-62
2022/09/06 02:16:22;;;;;;;16.42;7.83;;;;;;;11.87;63.13;101907.64;1714217;82;26322;-62
2022/09/06 02:19:12;;;;;;;16.25;8.00;;;;;;;11.86;63.63;101911.77;1714107;83;26052;-62
2022/09/06 02:21:44;;;;;;;19.05;7.42;;;;;;;11.85;63.79;101913.62;1714414;83;27650;-62
2022/09/06 02:24:16;;;;;;;12.90;7.40;;;;;;;11.84;64.06;101905.16;1705200;83;25841;-62
2022/09/06 02:26:44;;;;;;;18.00;7.83;;;;;;;11.86;64.39;101912.66;1697982;84;25807;-63
2022/09/06 02:29:12;;;;;;;20.27;7.78;;;;;;;11.87;65.01;101910.33;1695312;83;25750;-61
2022/09/06 02:32:05;;;;;;;18.52;7.90;;;;;;;11.87;64.84;101910.33;1695408;83;25769;-62
2022/09/06 02:34:32;;;;;;;14.38;7.30;;;;;;;11.89;64.84;101904.31;1687446;84;27548;-62
2022/09/06 02:36:59;;;;;;;18.30;7.50;;;;;;;11.92;64.72;101906.41;1674645;84;25836;-63
2022/09/06 02:39:27;;;;;;;13.90;7.40;;;;;;;11.91;64.84;101901.52;1694764;83;25807;-62
2022/09/06 02:41:54;;;;;;;11.53;6.50;;;;;;;11.92;65.41;101905.94;1687243;83;25653;-63
2022/09/06 02:44:21;;;;;;;14.38;6.90;;;;;;;11.89;64.94;101899.42;1679141;85;25716;-62
2022/09/06 02:46:48;;;;;;;11.12;6.72;;;;;;;11.87;65.33;101902.25;1669122;85;27535;-62
2022/09/06 02:49:15;;;;;;;16.85;7.37;;;;;;;11.86;65.08;101908.61;1684550;83;25874;-62
2022/09/06 02:51:42;;;;;;;24.75;7.25;;;;;;;11.82;66.17;101911.16;1685085;83;25817;-62
2022/09/06 02:54:09;;;;;;;21.07;7.10;;;;;;;11.68;65.48;101905.45;1685154;85;25835;-63
2022/09/06 02:56:36;;;;;;;18.55;7.50;;;;;;;11.63;65.50;101907.66;1684573;85;25502;-62
2022/09/06 02:59:04;;;;;;;14.45;7.33;;;;;;;11.66;65.93;101910.59;1685151;83;27498;-62
2022/09/06 03:01:32;;;;;;;16.30;7.45;;;;;;;11.69;65.96;101907.68;1684718;85;25970;-61
2022/09/06 03:03:59;;;;;;;19.12;8.65;;;;;;;11.74;66.12;101911.72;1684635;85;25732;-62
2022/09/06 03:06:26;;;;;;;15.53;8.70;;;;;;;11.77;66.26;101913.35;1684829;85;25773;-62
2022/09/06 03:08:53;;;;;;;12.70;6.87;;;;;;;11.77;66.37;101916.52;1684751;85;25779;-62
2022/09/06 03:11:21;;;;;;;19.80;7.00;;;;;;;11.75;66.06;101916.64;1681644;83;27476;-63
2022/09/06 03:13:49;;;;;;;14.13;7.65;;;;;;;11.71;65.83;101922.76;1658113;86;25738;-62
2022/09/06 03:16:16;;;;;;;12.18;6.95;;;;;;;11.69;65.99;101915.27;1700298;84;25838;-63
2022/09/06 03:18:44;;;;;;;17.60;7.47;;;;;;;11.70;65.92;101920.16;1694300;84;25840;-61
2022/09/06 03:21:12;;;;;;;17.45;6.87;;;;;;;11.69;65.73;101916.61;1693887;84;25737;-62
2022/09/06 03:23:39;;;;;;;11.57;6.92;;;;;;;11.71;65.73;101917.84;1693703;83;27502;-62
2022/09/06 03:26:07;;;;;;;18.75;6.87;;;;;;;11.70;65.45;101922.38;1687930;84;26173;-62
2022/09/06 03:28:34;;;;;;;33.60;7.60;;;;;;;11.70;65.23;101922.85;1660670;85;25828;-62
2022/09/06 03:31:01;;;;;;;19.10;7.95;;;;;;;11.68;65.24;101916.73;1660449;86;25815;-61
2022/09/06 03:33:28;;;;;;;18.62;7.00;;;;;;;11.68;65.36;101910.00;1660307;86;26120;-61
2022/09/06 03:35:59;;;;;;;16.60;6.78;;;;;;;11.68;65.44;101905.45;1660261;85;27661;-61
2022/09/06 03:38:28;;;;;;;22.55;8.33;;;;;;;11.70;65.33;101912.07;1660379;86;25654;-62
2022/09/06 03:40:55;;;;;;;17.87;8.28;;;;;;;11.67;65.20;101923.10;1673854;84;25861;-61
2022/09/06 03:43:25;;;;;;;19.90;7.72;;;;;;;11.63;65.36;101917.55;1661126;85;25764;-62
2022/09/06 03:45:58;;;;;;;18.32;7.75;;;;;;;11.63;65.46;101921.13;1660937;86;25715;-63
2022/09/06 03:48:28;;;;;;;16.48;7.05;;;;;;;11.63;65.36;101914.86;1645528;86;27505;-60
2022/09/06 03:50:58;;;;;;;23.07;9.10;;;;;;;11.62;65.49;101919.41;1660193;85;25511;-62
2022/09/06 03:53:28;;;;;;;12.13;7.03;;;;;;;11.63;65.67;101926.52;1660432;86;25737;-62
2022/09/06 03:55:56;;;;;;;10.98;7.15;;;;;;;11.64;65.76;101928.71;1660924;85;26490;-61
2022/09/06 03:58:30;;;;;;;17.65;7.95;;;;;;;11.65;66.09;101929.09;1660299;86;25733;-61
2022/09/06 04:01:05;;;;;;;11.12;6.67;;;;;;;11.67;66.09;101936.58;1660204;86;28313;-61
2022/09/06 04:03:33;;;;;;;22.58;8.15;;;;;;;11.70;66.19;101937.20;1659786;86;25942;-61
2022/09/06 04:06:01;;;;;;;14.28;7.92;;;;;;;11.74;66.48;101939.18;1660864;86;25790;-61
2022/09/06 04:08:28;;;;;;;18.42;7.67;;;;;;;11.78;66.55;101933.95;1683288;84;26301;-62
2022/09/06 04:10:57;;;;;;;18.65;7.35;;;;;;;11.84;66.32;101932.59;1716664;83;25829;-61
2022/09/06 04:13:26;;;;;;;22.32;7.65;;;;;;;11.86;67.04;101930.18;1690195;83;27463;-62
2022/09/06 04:15:53;;;;;;;18.27;8.35;;;;;;;11.91;66.82;101931.18;1690291;84;25772;-62
2022/09/06 04:18:22;;;;;;;22.05;8.50;;;;;;;11.98;66.80;101936.50;1690297;81;25816;-62
2022/09/06 04:20:55;;;;;;;18.37;8.98;;;;;;;12.08;66.98;101939.34;1660578;84;25826;-61
2022/09/06 04:23:25;;;;;;;18.35;8.00;;;;;;;12.18;66.84;101936.82;1694801;83;25973;-63
2022/09/06 04:25:56;;;;;;;22.37;8.23;;;;;;;12.27;66.59;101936.58;1694324;84;28179;-63
2022/09/06 04:28:25;;;;;;;22.87;8.35;;;;;;;12.39;66.55;101930.24;1667437;84;25831;-62
2022/09/06 04:30:55;;;;;;;21.10;8.00;;;;;;;12.45;66.33;101932.95;1667619;83;25800;-63
2022/09/06 04:33:24;;;;;;;15.25;7.50;;;;;;;12.53;66.02;101934.56;1695545;83;25775;-62
2022/09/06 04:35:56;;;;;;;15.63;7.85;;;;;;;12.63;65.98;101940.09;1694618;84;25832;-64
2022/09/06 04:38:25;;;;;;;26.12;8.65;;;;;;;12.73;65.84;101936.19;1666857;85;27525;-62
2022/09/06 04:40:56;;;;;;;24.25;8.83;;;;;;;12.75;65.24;101939.13;1665586;84;25772;-62
2022/09/06 04:43:23;;;;;;;22.32;8.88;;;;;;;12.81;65.23;101937.28;1699028;83;25764;-62
2022/09/06 04:45:50;;;;;;;17.73;8.25;;;;;;;12.85;65.21;101950.04;1699556;83;25744;-65
2022/09/06 04:48:17;;;;;;;19.37;8.28;;;;;;;12.89;64.98;101942.08;1694939;83;25752;-62
2022/09/06 04:50:44;;;;;;;20.20;9.33;;;;;;;12.93;65.22;101947.58;1694875;83;27558;-62
2022/09/06 04:53:11;;;;;;;24.92;11.73;;;;;;;12.96;65.17;101943.77;1693841;83;26052;-62
2022/09/06 04:55:38;;;;;;;35.05;15.85;;;;;;;12.96;64.94;101937.02;1694418;83;25519;-62
2022/09/06 04:58:05;;;;;;;20.82;10.03;;;;;;;13.02;65.14;101944.66;1694847;83;25737;-62
2022/09/06 05:00:34;;;;;;;29.92;9.58;;;;;;;13.06;64.78;101942.56;1694523;83;25823;-63
2022/09/06 05:03:01;;;;;;;21.10;9.70;;;;;;;13.07;64.43;101943.77;1694694;83;27470;-64
2022/09/06 05:05:28;;;;;;;20.92;10.70;;;;;;;13.10;64.36;101948.94;1694844;83;25507;-63
2022/09/06 05:07:55;;;;;;;19.85;9.55;;;;;;;13.12;64.29;101944.75;1694075;83;25805;-62
2022/09/06 05:10:23;;;;;;;23.27;9.30;;;;;;;13.13;64.27;101945.13;1694922;84;25810;-62
2022/09/06 05:12:52;;;;;;;15.15;9.03;;;;;;;13.23;64.31;101942.05;1695107;83;25831;-62
2022/09/06 05:15:21;;;;;;;20.68;9.50;;;;;;;13.30;64.00;101939.72;1694769;83;27438;-62
2022/09/06 05:17:48;;;;;;;20.95;10.23;;;;;;;13.38;63.91;101937.71;1694811;84;25748;-63
2022/09/06 05:20:16;;;;;;;28.65;9.25;;;;;;;13.43;63.79;101935.54;1699952;82;25747;-63
2022/09/06 05:22:43;;;;;;;23.87;10.72;;;;;;;13.46;63.77;101935.27;1702349;82;25786;-62
2022/09/06 05:25:10;;;;;;;27.32;11.43;;;;;;;13.53;63.83;101940.55;1672372;84;25479;-62
2022/09/06 05:27:37;;;;;;;19.55;9.58;;;;;;;13.60;64.04;101945.81;1713761;82;27451;-63
2022/09/06 05:30:07;;;;;;;15.30;7.78;;;;;;;13.70;63.84;101942.34;1708299;83;25868;-64
2022/09/06 05:32:34;;;;;;;32.83;9.78;;;;;;;13.80;63.54;101940.59;1708144;83;25842;-62
2022/09/06 05:35:01;;;;;;;17.98;9.03;;;;;;;13.90;63.43;101943.38;1729661;82;25537;-63
2022/09/06 05:37:28;;;;;;;17.40;8.33;;;;;;;13.98;62.80;101944.09;1707489;82;25714;-65
2022/09/06 05:39:55;;;;;;;26.45;8.75;;;;;;;14.03;62.55;101953.50;1678869;84;28365;-63
2022/09/06 05:42:22;;;;;;;18.35;8.45;;;;;;;14.04;62.13;101955.22;1680714;85;25754;-63
2022/09/06 05:44:49;;;;;;;22.85;8.73;;;;;;;14.15;62.16;101948.92;1706531;82;25790;-63
2022/09/06 05:47:16;;;;;;;17.87;8.48;;;;;;;14.29;62.09;101951.80;1704180;82;26258;-62
2022/09/06 05:49:43;;;;;;;19.27;9.43;;;;;;;14.43;61.68;101954.67;1702978;84;25748;-63
2022/09/06 05:52:10;;;;;;;14.85;9.00;;;;;;;14.56;60.86;101949.89;1702509;82;27498;-64
2022/09/06 05:54:37;;;;;;;23.73;10.70;;;;;;;14.62;60.42;101949.86;1707920;84;25851;-62
2022/09/06 05:57:06;;;;;;;18.25;9.33;;;;;;;14.63;60.16;101948.00;1708410;83;25806;-63
2022/09/06 05:59:32;;;;;;;19.32;9.00;;;;;;;14.71;60.27;101948.21;1707924;82;26352;-63
2022/09/06 06:01:59;;;;;;;22.60;9.18;;;;;;;14.80;60.00;101947.91;1708116;83;25784;-63
2022/09/06 06:04:26;;;;;;;18.85;8.98;;;;;;;14.86;59.52;101947.36;1707759;83;28171;-63
2022/09/06 06:06:53;;;;;;;21.05;9.25;;;;;;;14.89;58.90;101948.45;1709764;82;25841;-63
2022/09/06 06:09:20;;;;;;;26.52;9.98;;;;;;;14.94;58.88;101960.24;1709056;83;25752;-63
2022/09/06 06:11:47;;;;;;;34.50;12.33;;;;;;;14.91;58.76;101955.08;1708709;83;25723;-63
2022/09/06 06:14:14;;;;;;;62.15;12.80;;;;;;;14.93;58.78;101964.78;1708816;84;25779;-63
2022/09/06 06:16:41;;;;;;;24.45;9.53;;;;;;;14.95;58.72;101957.89;1708640;84;27550;-62
2022/09/06 06:19:08;;;;;;;23.65;8.90;;;;;;;14.93;58.05;101958.02;1708244;83;26219;-64
2022/09/06 06:21:37;;;;;;;20.97;9.63;;;;;;;14.89;58.08;101949.81;1725431;82;25841;-62
2022/09/06 06:24:06;;;;;;;19.05;9.70;;;;;;;14.85;58.00;101946.52;1706521;82;25785;-63
2022/09/06 06:26:35;;;;;;;13.83;8.85;;;;;;;14.81;58.29;101949.63;1701021;84;25664;-63
2022/09/06 06:29:06;;;;;;;16.73;9.28;;;;;;;14.83;58.33;101953.92;1701046;84;28225;-63
2022/09/06 06:31:33;;;;;;;21.55;9.40;;;;;;;14.82;58.31;101954.06;1700782;84;25834;-63
2022/09/06 06:34:03;;;;;;;20.75;9.78;;;;;;;14.89;58.32;101950.29;1701132;83;25499;-62
2022/09/06 06:36:33;;;;;;;26.80;10.05;;;;;;;14.97;58.31;101958.11;1707540;83;25793;-63
2022/09/06 06:39:01;;;;;;;17.10;8.73;;;;;;;15.12;58.24;101949.59;1702328;83;26046;-63
2022/09/06 06:41:30;;;;;;;15.53;9.60;;;;;;;15.24;57.98;101948.52;1683334;83;27463;-62
2022/09/06 06:44:04;;;;;;;20.88;10.58;;;;;;;15.31;57.56;101946.95;1702760;83;25834;-64
2022/09/06 06:46:37;;;;;;;25.17;9.23;;;;;;;15.40;57.27;101945.77;1699182;84;29682;-63
2022/09/06 06:49:04;;;;;;;24.05;9.38;;;;;;;15.48;57.10;101951.34;1699319;84;25770;-63
2022/09/06 06:51:35;;;;;;;17.65;10.85;;;;;;;15.47;56.66;101954.56;1699587;84;26412;-63
2022/09/06 06:54:03;;;;;;;23.00;9.43;;;;;;;15.46;56.48;101956.91;1698013;84;27551;-63
2022/09/06 06:56:43;;;;;;;18.17;8.38;;;;;;;15.49;56.34;101955.30;1699214;84;25907;-63
2022/09/06 06:59:11;;;;;;;22.05;8.68;;;;;;;15.49;55.82;101955.77;1678789;84;25718;-63
2022/09/06 07:01:38;;;;;;;17.00;9.08;;;;;;;15.42;55.78;101962.24;1698621;84;25786;-64
2022/09/06 07:04:06;;;;;;;15.88;7.60;;;;;;;15.41;55.58;101959.20;1699367;84;25815;-63
2022/09/06 07:06:52;;;;;;;15.08;8.23;;;;;;;15.43;55.20;101959.05;1699522;84;28170;-63
2022/09/06 07:09:21;;;;;;;17.48;8.25;;;;;;;15.50;55.34;101957.48;1698509;84;25844;-63
2022/09/06 07:11:49;;;;;;;22.95;9.08;;;;;;;15.61;55.19;101953.79;1700519;84;25859;-63
2022/09/06 07:14:17;;;;;;;22.80;8.25;;;;;;;15.70;55.25;101957.53;1699212;84;26016;-64
2022/09/06 07:16:44;;;;;;;21.50;8.78;;;;;;;15.77;55.03;101953.24;1698985;84;25679;-64
2022/09/06 07:19:11;;;;;;;16.15;9.25;;;;;;;15.92;55.24;101951.00;1700517;84;27480;-64
2022/09/06 07:21:38;;;;;;;21.35;8.30;;;;;;;16.08;55.18;101951.28;1690025;84;25527;-64
2022/09/06 07:24:06;;;;;;;20.88;8.05;;;;;;;16.22;54.63;101955.42;1687791;83;25733;-63
2022/09/06 07:26:35;;;;;;;19.42;8.48;;;;;;;16.38;54.42;101962.11;1658997;86;25787;-64
2022/09/06 07:29:04;;;;;;;17.35;8.80;;;;;;;16.57;54.01;101960.72;1693296;84;25773;-63
2022/09/06 07:31:31;;;;;;;18.90;7.70;;;;;;;16.78;53.72;101953.35;1688944;83;28214;-63
2022/09/06 07:33:58;;;;;;;17.30;8.48;;;;;;;16.99;53.53;101959.47;1689051;84;25760;-63
2022/09/06 07:36:25;;;;;;;18.87;7.62;;;;;;;17.24;53.37;101968.45;1662487;86;25800;-64
2022/09/06 07:38:53;;;;;;;22.95;6.85;;;;;;;17.42;52.80;101965.76;1676766;83;25749;-64
2022/09/06 07:41:20;;;;;;;22.15;7.42;;;;;;;17.55;51.58;101966.75;1686635;84;25793;-64
2022/09/06 07:43:47;;;;;;;19.12;7.45;;;;;;;17.62;50.57;101965.13;1684237;83;28242;-65
2022/09/06 07:46:16;;;;;;;13.00;6.90;;;;;;;17.70;50.97;101965.73;1683641;84;26684;-64
2022/09/06 07:48:45;;;;;;;21.02;6.50;;;;;;;17.75;50.83;101972.42;1688445;84;25713;-63
2022/09/06 07:51:17;;;;;;;23.87;7.10;;;;;;;17.82;50.26;101969.42;1684996;83;25728;-63
2022/09/06 07:53:49;;;;;;;14.65;5.95;;;;;;;17.91;50.06;101964.06;1683532;84;26386;-63
2022/09/06 07:56:18;;;;;;;18.73;6.25;;;;;;;18.07;49.83;101972.92;1684808;83;27481;-63
2022/09/06 07:58:45;;;;;;;19.37;6.47;;;;;;;18.26;47.73;101971.39;1684870;84;25955;-64
2022/09/06 08:01:29;;;;;;;21.23;6.45;;;;;;;18.41;47.84;101964.00;1686226;83;25519;-64
2022/09/06 08:04:02;;;;;;;;;;;;;;;18.55;48.22;101956.63;1670780;84;25793;-63
2022/09/06 08:06:32;;;;;;;16.17;5.78;;;;;;;18.74;48.09;101961.00;1687705;83;25746;-63
2022/09/06 08:08:59;;;;;;;18.77;6.08;;;;;;;18.88;47.38;101954.09;1719017;83;28367;-64
2022/09/06 08:11:30;;;;;;;19.35;4.83;;;;;;;19.06;47.40;101950.45;1719162;83;26469;-63
2022/09/06 08:13:59;;;;;;;10.65;5.17;;;;;;;19.16;47.21;101944.86;1718975;83;25766;-63
2022/09/06 08:16:28;;;;;;;15.32;5.10;;;;;;;19.29;46.46;101945.27;1719002;83;25679;-63
2022/09/06 08:18:58;;;;;;;14.80;5.87;;;;;;;19.41;46.40;101942.23;1716558;83;25781;-63
2022/09/06 08:21:30;;;;;;;14.90;4.95;;;;;;;19.52;45.81;101938.67;1709832;82;27447;-63
2022/09/06 08:24:05;;;;;;;12.68;4.12;;;;;;;19.67;45.58;101936.64;1736295;82;25832;-63
2022/09/06 08:26:35;;;;;;;15.83;4.72;;;;;;;19.76;44.96;101934.80;1716445;83;25718;-63
2022/09/06 08:29:06;;;;;;;18.10;5.00;;;;;;;19.93;43.65;101937.05;1716310;83;25849;-63
2022/09/06 08:31:35;;;;;;;11.12;3.42;;;;;;;20.06;43.17;101932.44;1716500;82;25701;-63
2022/09/06 08:34:02;;;;;;;10.03;3.10;;;;;;;20.12;41.61;101935.34;1715926;82;27563;-63
2022/09/06 08:36:31;;;;;;;5.42;2.37;;;;;;;20.24;40.01;101915.88;1712668;83;26133;-64
2022/09/06 08:39:00;;;;;;;17.32;2.92;;;;;;;20.50;40.57;101915.65;1710253;83;25766;-63
2022/09/06 08:41:39;;;;;;;6.78;2.90;;;;;;;20.70;40.54;101915.27;1711595;83;25823;-63
2022/09/06 08:44:14;;;;;;;12.95;2.72;;;;;;;20.84;38.91;101908.23;1710502;82;25751;-64
2022/09/06 08:46:49;;;;;;;6.25;2.80;;;;;;;20.93;38.14;101898.98;1712747;82;27617;-63
2022/09/06 08:49:16;;;;;;;11.68;2.83;;;;;;;21.07;38.76;101896.84;1712281;83;25884;-63
2022/09/06 08:51:54;;;;;;;4.65;2.10;;;;;;;21.22;35.31;101883.80;1715364;82;25471;-64
2022/09/06 08:54:35;;;;;;;12.30;2.62;;;;;;;21.35;36.47;101890.05;1709979;83;25836;-63
2022/09/06 08:57:10;;;;;;;5.92;2.17;;;;;;;21.55;34.36;101889.92;1711627;83;25740;-63
2022/09/06 08:59:41;;;;;;;4.30;2.10;;;;;;;21.77;34.17;101881.89;1709714;83;27536;-63
2022/09/06 09:02:19;;;;;;;10.25;2.60;;;;;;;22.02;35.01;101884.41;1714021;82;25776;-63
2022/09/06 09:04:54;;;;;;;7.58;2.12;;;;;;;22.28;35.39;101877.15;1711982;83;25790;-63
2022/09/06 09:08:06;;;;;;;14.38;2.62;;;;;;;22.60;34.77;101875.10;1709272;83;25792;-64
2022/09/06 09:11:05;;;;;;;10.63;2.50;;;;;;;22.92;32.46;101872.14;1712836;82;25793;-64
2022/09/06 09:13:52;;;;;;;21.73;2.80;;;;;;;23.24;32.69;101860.42;1710790;83;27485;-64
2022/09/06 09:16:21;;;;;;;6.62;2.67;;;;;;;23.20;31.88;101861.34;1713157;83;25705;-63
2022/09/06 09:18:51;;;;;;;6.85;2.35;;;;;;;23.03;32.86;101865.33;1714273;83;25701;-64
2022/09/06 09:21:23;;;;;;;17.23;3.58;;;;;;;23.20;33.02;101870.08;1697259;82;26505;-63
2022/09/06 09:23:58;;;;;;;12.23;2.52;;;;;;;23.68;33.05;101857.16;1684979;84;25859;-64
2022/09/06 09:27:09;;;;;;;12.28;2.55;;;;;;;24.27;32.19;101854.59;1691171;83;28423;-63
2022/09/06 09:30:00;;;;;;;8.50;2.40;;;;;;;24.66;30.80;101855.02;1684205;83;25857;-64
2022/09/06 09:32:36;;;;;;;9.60;2.87;;;;;;;25.06;30.11;101847.48;1692672;83;25724;-63
2022/09/06 09:35:35;;;;;;;5.58;2.65;;;;;;;25.14;29.76;101850.07;1694452;83;25831;-64
2022/09/06 09:38:09;;;;;;;12.37;2.10;;;;;;;25.19;30.11;101846.16;1675777;84;25796;-63
2022/09/06 09:40:52;;;;;;;7.22;2.00;;;;;;;25.03;29.38;101851.50;1694812;83;28194;-63
2022/09/06 09:43:24;;;;;;;6.08;2.08;;;;;;;24.90;28.80;101842.67;1693375;84;25810;-64
2022/09/06 09:46:14;;;;;;;7.35;2.62;;;;;;;25.15;29.73;101846.23;1695703;84;25774;-63
2022/09/06 09:48:48;;;;;;;4.30;2.45;;;;;;;25.95;28.09;101846.89;1674371;84;25751;-63
2022/09/06 09:51:20;;;;;;;4.92;2.40;;;;;;;26.24;28.34;101841.47;1676363;84;25810;-63
2022/09/06 09:53:59;;;;;;;13.33;2.10;;;;;;;26.95;26.90;101836.17;1694099;83;27280;-63
2022/09/06 09:56:37;;;;;;;7.33;1.87;;;;;;;27.70;26.88;101831.03;1693634;84;25783;-65
2022/09/06 09:59:25;;;;;;;10.23;2.08;;;;;;;28.63;24.54;101828.39;1693730;84;25692;-63
2022/09/06 10:02:02;;;;;;;8.28;1.87;;;;;;;29.32;25.67;101826.22;1692353;84;25704;-63
2022/09/06 10:04:34;;;;;;;4.20;1.85;;;;;;;30.22;24.14;101828.11;1698451;84;25813;-64
2022/09/06 10:07:18;;;;;;;10.90;1.80;;;;;;;30.79;21.02;101824.66;1694138;83;28239;-64
2022/09/06 10:10:09;;;;;;;6.55;1.60;;;;;;;30.87;21.44;101822.02;1694975;84;25953;-65
2022/09/06 10:12:39;;;;;;;3.00;1.70;;;;;;;31.08;21.75;101828.80;1695163;84;25725;-64
2022/09/06 10:15:10;;;;;;;5.60;1.50;;;;;;;31.34;21.22;101830.69;1695741;84;25855;-63
2022/09/06 10:17:50;;;;;;;6.17;1.60;;;;;;;31.75;21.14;101828.64;1692959;83;25780;-64
2022/09/06 10:20:18;;;;;;;7.92;1.67;;;;;;;32.05;20.61;101821.84;1693973;84;28115;-63
2022/09/06 10:23:05;;;;;;;6.47;1.98;;;;;;;32.60;18.38;101824.29;1693582;84;25957;-63
2022/09/06 10:25:58;;;;;;;6.67;1.92;;;;;;;32.49;19.61;101821.64;1669601;84;25903;-64
2022/09/06 10:28:30;;;;;;;4.42;1.17;;;;;;;32.56;18.71;101815.32;1694015;84;25747;-63
2022/09/06 10:31:28;;;;;;;10.93;2.02;;;;;;;32.44;18.81;101825.20;1694151;84;25747;-63
2022/09/06 10:34:33;;;;;;;7.30;1.40;;;;;;;32.34;18.64;101817.54;1694126;83;27490;-64
2022/09/06 10:37:40;;;;;;;4.62;1.40;;;;;;;32.58;18.95;101818.70;1694143;84;26420;-65
2022/09/06 10:40:15;;;;;;;5.95;1.80;;;;;;;33.07;18.45;101806.16;1694602;82;25811;-64
2022/09/06 10:42:54;;;;;;;4.65;1.17;;;;;;;33.95;18.70;101811.09;1679999;83;26011;-65
2022/09/06 10:45:41;;;;;;;3.20;1.62;;;;;;;34.57;18.37;101812.00;1685074;83;25765;-64
2022/09/06 10:48:40;;;;;;;9.33;1.82;;;;;;;35.04;17.01;101805.45;1684556;85;27452;-64
2022/09/06 10:51:34;;;;;;;5.97;2.08;;;;;;;35.43;17.79;101812.48;1685150;83;25798;-65
2022/09/06 10:54:06;;;;;;;7.62;1.32;;;;;;;35.74;16.30;101812.44;1684153;85;25819;-64
2022/09/06 10:56:45;;;;;;;10.25;1.60;;;;;;;35.45;16.02;101804.66;1684675;85;26537;-64
2022/09/06 10:59:29;;;;;;;6.25;1.32;;;;;;;35.28;16.53;101801.27;1681002;83;25759;-65
2022/09/06 11:02:07;;;;;;;3.90;1.30;;;;;;;35.43;15.59;101804.09;1684469;85;27576;-65
2022/09/06 11:04:39;;;;;;;5.08;1.30;;;;;;;35.26;16.35;101805.19;1684190;84;25765;-65
2022/09/06 11:07:17;;;;;;;7.20;1.80;;;;;;;35.59;16.86;101800.73;1683888;83;31807;-64
2022/09/06 11:09:55;;;;;;;9.18;1.60;;;;;;;36.27;16.73;101801.41;1666958;85;25925;-65
2022/09/06 11:12:42;;;;;;;3.85;1.40;;;;;;;36.76;16.20;101802.59;1684382;83;26072;-64
2022/09/06 11:15:13;;;;;;;6.35;1.55;;;;;;;37.02;15.20;101799.10;1684372;83;29641;-65
2022/09/06 11:18:06;;;;;;;7.78;1.55;;;;;;;36.96;14.94;101797.47;1684542;85;25828;-64
2022/09/06 11:20:47;;;;;;;8.15;1.90;;;;;;;36.90;15.00;101795.27;1673524;83;25891;-65
2022/09/06 11:23:25;;;;;;;3.65;1.07;;;;;;;36.57;14.43;101791.23;1684223;83;26300;-65
2022/09/06 11:26:27;;;;;;;1.60;1.30;;;;;;;35.96;14.89;101799.55;1673749;83;25781;-65
2022/09/06 11:29:04;;;;;;;5.53;1.35;;;;;;;35.89;15.55;101790.59;1643237;83;27496;-65
2022/09/06 11:31:34;;;;;;;5.17;1.45;;;;;;;36.11;15.55;101786.07;1684484;83;25784;-64
2022/09/06 11:34:20;;;;;;;3.35;1.62;;;;;;;36.64;15.26;101781.93;1684148;85;25751;-65
2022/09/06 11:36:55;;;;;;;9.30;1.77;;;;;;;36.90;15.04;101784.05;1685095;83;25844;-65
2022/09/06 11:39:39;;;;;;;7.72;1.55;;;;;;;36.84;14.62;101783.79;1684501;84;25798;-66
2022/09/06 11:42:19;;;;;;;5.80;1.40;;;;;;;36.67;14.60;101776.33;1690038;83;27508;-65
2022/09/06 11:44:54;;;;;;;7.33;1.98;;;;;;;36.44;13.96;101775.88;1655279;85;25835;-65
2022/09/06 11:47:46;;;;;;;9.58;1.52;;;;;;;35.60;13.98;101773.58;1683744;84;26322;-64
2022/09/06 11:50:26;;;;;;;;;;;;;;;34.75;15.36;101778.50;1697607;84;25876;-63